sensor_id;sensor_type;location;lat;lon;timestamp;temperature;humidity
22235;DHT22;11286;45.596;5.284;2022-09-27T00:00:35;14.20;99.90
22235;DHT22;11286;45.596;5.284;2022-09-27T00:03:00;14.20;99.90
22235;DHT22;11286;45.596;5.284;2022-09-27T00:05:27;14.20;99.90
22235;DHT22;11286;45.596;5.284;2022-09-27T00:07:52;14.10;99.90
22235;DHT22;11286;45.596;5.284;2022-09-27T00:10:18;14.00;99.90
22235;DHT22;11286;45.596;5.284;2022-09-27T00:12:44;14.00;99.90
22235;DHT22;11286;45.596;5.284;2022-09-27T00:15:10;14.20;99.90
22235;DHT22;11286;45.596;5.284;2022-09-27T00:17:37;14.00;99.90
22235;DHT22;11286;45.596;5.284;2022-09-27T00:20:04;14.00;99.90
22235;DHT22;11286;45.596;5.284;2022-09-27T00:22:30;14.00;99.90
22235;DHT22;11286;45.596;5.284;2022-09-27T00:24:56;14.00;99.90
22235;DHT22;11286;45.596;5.284;2022-09-27T00:27:23;14.20;99.90
22235;DHT22;11286;45.596;5.284;2022-09-27T00:29:49;14.30;99.90
22235;DHT22;11286;45.596;5.284;2022-09-27T00:32:15;14.20;99.90
22235;DHT22;11286;45.596;5.284;2022-09-27T00:34:41;14.10;99.90
22235;DHT22;11286;45.596;5.284;2022-09-27T00:37:07;14.30;99.90
22235;DHT22;11286;45.596;5.284;2022-09-27T00:39:34;14.20;99.90
22235;DHT22;11286;45.596;5.284;2022-09-27T00:41:59;14.30;99.90
22235;DHT22;11286;45.596;5.284;2022-09-27T00:47:06;14.60;99.90
22235;DHT22;11286;45.596;5.284;2022-09-27T00:49:47;14.60;99.90
22235;DHT22;11286;45.596;5.284;2022-09-27T00:52:24;14.50;99.90
22235;DHT22;11286;45.596;5.284;2022-09-27T00:54:58;14.50;99.90
22235;DHT22;11286;45.596;5.284;2022-09-27T00:57:25;14.00;99.90
22235;DHT22;11286;45.596;5.284;2022-09-27T00:59:58;13.90;99.90
22235;DHT22;11286;45.596;5.284;2022-09-27T01:02:25;13.90;99.90
22235;DHT22;11286;45.596;5.284;2022-09-27T01:04:51;14.20;99.90
22235;DHT22;11286;45.596;5.284;2022-09-27T01:07:17;14.00;99.90
22235;DHT22;11286;45.596;5.284;2022-09-27T01:09:43;14.00;99.90
22235;DHT22;11286;45.596;5.284;2022-09-27T01:12:30;14.10;99.90
22235;DHT22;11286;45.596;5.284;2022-09-27T01:18:02;14.20;99.90
22235;DHT22;11286;45.596;5.284;2022-09-27T01:20:54;13.80;99.90
22235;DHT22;11286;45.596;5.284;2022-09-27T01:32:18;14.20;99.90
22235;DHT22;11286;45.596;5.284;2022-09-27T01:35:00;14.10;99.90
22235;DHT22;11286;45.596;5.284;2022-09-27T01:40:32;14.10;99.90
22235;DHT22;11286;45.596;5.284;2022-09-27T01:43:14;14.10;99.90
22235;DHT22;11286;45.596;5.284;2022-09-27T01:45:47;14.10;99.90
22235;DHT22;11286;45.596;5.284;2022-09-27T01:48:23;14.00;99.90
22235;DHT22;11286;45.596;5.284;2022-09-27T01:51:06;14.10;99.90
22235;DHT22;11286;45.596;5.284;2022-09-27T01:53:39;14.10;99.90
22235;DHT22;11286;45.596;5.284;2022-09-27T01:56:09;14.10;99.90
22235;DHT22;11286;45.596;5.284;2022-09-27T01:58:43;14.20;99.90
22235;DHT22;11286;45.596;5.284;2022-09-27T02:01:12;14.20;99.90
22235;DHT22;11286;45.596;5.284;2022-09-27T02:03:42;14.10;99.90
22235;DHT22;11286;45.596;5.284;2022-09-27T02:06:30;14.20;99.90
22235;DHT22;11286;45.596;5.284;2022-09-27T02:09:26;14.00;99.90
22235;DHT22;11286;45.596;5.284;2022-09-27T02:11:57;14.00;99.90
22235;DHT22;11286;45.596;5.284;2022-09-27T02:14:28;14.40;99.90
22235;DHT22;11286;45.596;5.284;2022-09-27T02:17:34;14.60;99.90
22235;DHT22;11286;45.596;5.284;2022-09-27T02:22:47;14.60;99.90
22235;DHT22;11286;45.596;5.284;2022-09-27T02:25:28;14.10;99.90
22235;DHT22;11286;45.596;5.284;2022-09-27T02:30:44;14.10;99.90
22235;DHT22;11286;45.596;5.284;2022-09-27T02:33:10;14.10;99.90
22235;DHT22;11286;45.596;5.284;2022-09-27T02:35:36;14.00;99.90
22235;DHT22;11286;45.596;5.284;2022-09-27T02:38:03;14.00;99.90
22235;DHT22;11286;45.596;5.284;2022-09-27T02:40:32;14.00;99.90
22235;DHT22;11286;45.596;5.284;2022-09-27T02:42:59;14.20;99.90
22235;DHT22;11286;45.596;5.284;2022-09-27T02:45:40;13.80;99.90
22235;DHT22;11286;45.596;5.284;2022-09-27T02:48:34;13.90;99.90
22235;DHT22;11286;45.596;5.284;2022-09-27T02:56:37;13.70;99.90
22235;DHT22;11286;45.596;5.284;2022-09-27T03:02:06;13.70;99.90
22235;DHT22;11286;45.596;5.284;2022-09-27T03:04:55;13.50;99.90
22235;DHT22;11286;45.596;5.284;2022-09-27T03:07:23;13.40;99.90
22235;DHT22;11286;45.596;5.284;2022-09-27T03:09:50;13.40;99.90
22235;DHT22;11286;45.596;5.284;2022-09-27T03:12:18;13.40;99.90
22235;DHT22;11286;45.596;5.284;2022-09-27T03:14:47;13.50;99.90
22235;DHT22;11286;45.596;5.284;2022-09-27T03:17:13;13.40;99.90
22235;DHT22;11286;45.596;5.284;2022-09-27T03:19:39;13.40;99.90
22235;DHT22;11286;45.596;5.284;2022-09-27T03:22:05;13.50;99.90
22235;DHT22;11286;45.596;5.284;2022-09-27T03:24:31;13.50;99.90
22235;DHT22;11286;45.596;5.284;2022-09-27T03:26:56;13.80;99.90
22235;DHT22;11286;45.596;5.284;2022-09-27T03:29:22;13.60;99.90
22235;DHT22;11286;45.596;5.284;2022-09-27T03:31:48;13.90;99.90
22235;DHT22;11286;45.596;5.284;2022-09-27T03:34:13;13.80;99.90
22235;DHT22;11286;45.596;5.284;2022-09-27T03:36:39;13.90;99.90
22235;DHT22;11286;45.596;5.284;2022-09-27T03:39:04;13.60;99.90
22235;DHT22;11286;45.596;5.284;2022-09-27T03:41:30;13.90;99.90
22235;DHT22;11286;45.596;5.284;2022-09-27T03:43:56;13.40;99.90
22235;DHT22;11286;45.596;5.284;2022-09-27T03:46:24;13.40;99.90
22235;DHT22;11286;45.596;5.284;2022-09-27T03:48:50;13.60;99.90
22235;DHT22;11286;45.596;5.284;2022-09-27T03:51:15;13.40;99.90
22235;DHT22;11286;45.596;5.284;2022-09-27T03:53:41;13.40;99.90
22235;DHT22;11286;45.596;5.284;2022-09-27T03:56:07;13.50;99.90
22235;DHT22;11286;45.596;5.284;2022-09-27T03:58:33;13.50;99.90
22235;DHT22;11286;45.596;5.284;2022-09-27T04:00:59;13.20;99.90
22235;DHT22;11286;45.596;5.284;2022-09-27T04:03:24;13.20;99.90
22235;DHT22;11286;45.596;5.284;2022-09-27T04:05:52;13.10;99.90
22235;DHT22;11286;45.596;5.284;2022-09-27T04:08:17;13.00;99.90
22235;DHT22;11286;45.596;5.284;2022-09-27T04:10:43;13.30;99.90
22235;DHT22;11286;45.596;5.284;2022-09-27T04:13:09;13.10;99.90
22235;DHT22;11286;45.596;5.284;2022-09-27T04:15:35;13.20;99.90
22235;DHT22;11286;45.596;5.284;2022-09-27T04:18:04;13.60;99.90
22235;DHT22;11286;45.596;5.284;2022-09-27T04:20:29;13.40;99.90
22235;DHT22;11286;45.596;5.284;2022-09-27T04:22:55;13.50;99.90
22235;DHT22;11286;45.596;5.284;2022-09-27T04:25:21;13.50;99.90
22235;DHT22;11286;45.596;5.284;2022-09-27T04:27:47;13.80;99.90
22235;DHT22;11286;45.596;5.284;2022-09-27T04:30:13;13.50;99.90
22235;DHT22;11286;45.596;5.284;2022-09-27T04:32:41;13.50;99.90
22235;DHT22;11286;45.596;5.284;2022-09-27T04:35:08;13.80;99.90
22235;DHT22;11286;45.596;5.284;2022-09-27T04:37:52;13.50;99.90
22235;DHT22;11286;45.596;5.284;2022-09-27T04:40:18;13.40;99.90
22235;DHT22;11286;45.596;5.284;2022-09-27T04:42:44;13.50;99.90
22235;DHT22;11286;45.596;5.284;2022-09-27T04:45:10;13.30;99.90
22235;DHT22;11286;45.596;5.284;2022-09-27T04:47:48;13.50;99.90
22235;DHT22;11286;45.596;5.284;2022-09-27T04:50:14;13.40;99.90
22235;DHT22;11286;45.596;5.284;2022-09-27T04:52:42;13.20;99.90
22235;DHT22;11286;45.596;5.284;2022-09-27T04:55:08;12.90;99.90
22235;DHT22;11286;45.596;5.284;2022-09-27T04:57:35;12.90;99.90
22235;DHT22;11286;45.596;5.284;2022-09-27T05:00:01;12.90;99.90
22235;DHT22;11286;45.596;5.284;2022-09-27T05:02:27;13.00;99.90
22235;DHT22;11286;45.596;5.284;2022-09-27T05:04:54;12.90;99.90
22235;DHT22;11286;45.596;5.284;2022-09-27T05:07:24;13.00;99.90
22235;DHT22;11286;45.596;5.284;2022-09-27T05:09:50;13.10;99.90
22235;DHT22;11286;45.596;5.284;2022-09-27T05:12:15;13.00;99.90
22235;DHT22;11286;45.596;5.284;2022-09-27T05:14:41;13.00;99.90
22235;DHT22;11286;45.596;5.284;2022-09-27T05:17:07;13.10;99.90
22235;DHT22;11286;45.596;5.284;2022-09-27T05:19:33;13.40;99.90
22235;DHT22;11286;45.596;5.284;2022-09-27T05:21:59;13.50;99.90
22235;DHT22;11286;45.596;5.284;2022-09-27T05:24:24;13.20;99.90
22235;DHT22;11286;45.596;5.284;2022-09-27T05:26:52;13.60;99.90
22235;DHT22;11286;45.596;5.284;2022-09-27T05:29:18;13.60;99.90
22235;DHT22;11286;45.596;5.284;2022-09-27T05:31:44;13.20;99.90
22235;DHT22;11286;45.596;5.284;2022-09-27T05:34:09;13.20;99.90
22235;DHT22;11286;45.596;5.284;2022-09-27T05:36:37;13.30;99.90
22235;DHT22;11286;45.596;5.284;2022-09-27T05:39:03;13.40;99.90
22235;DHT22;11286;45.596;5.284;2022-09-27T05:41:29;13.30;99.90
22235;DHT22;11286;45.596;5.284;2022-09-27T05:43:57;13.60;99.90
22235;DHT22;11286;45.596;5.284;2022-09-27T05:46:23;13.40;99.90
22235;DHT22;11286;45.596;5.284;2022-09-27T05:48:49;13.40;99.90
22235;DHT22;11286;45.596;5.284;2022-09-27T05:51:14;13.60;99.90
22235;DHT22;11286;45.596;5.284;2022-09-27T05:53:40;13.30;99.90
22235;DHT22;11286;45.596;5.284;2022-09-27T05:56:06;13.40;99.90
22235;DHT22;11286;45.596;5.284;2022-09-27T05:58:32;13.30;99.90
22235;DHT22;11286;45.596;5.284;2022-09-27T06:00:59;13.70;99.90
22235;DHT22;11286;45.596;5.284;2022-09-27T06:03:24;13.40;99.90
22235;DHT22;11286;45.596;5.284;2022-09-27T06:05:50;13.40;99.90
22235;DHT22;11286;45.596;5.284;2022-09-27T06:08:16;13.50;99.90
22235;DHT22;11286;45.596;5.284;2022-09-27T06:10:44;13.50;99.90
22235;DHT22;11286;45.596;5.284;2022-09-27T06:13:12;13.80;99.90
22235;DHT22;11286;45.596;5.284;2022-09-27T06:15:41;13.40;99.90
22235;DHT22;11286;45.596;5.284;2022-09-27T06:18:11;13.30;99.90
22235;DHT22;11286;45.596;5.284;2022-09-27T06:20:39;13.60;99.90
22235;DHT22;11286;45.596;5.284;2022-09-27T06:23:07;13.50;99.90
22235;DHT22;11286;45.596;5.284;2022-09-27T06:25:34;13.60;99.90
22235;DHT22;11286;45.596;5.284;2022-09-27T06:28:00;13.90;99.90
22235;DHT22;11286;45.596;5.284;2022-09-27T06:30:26;13.60;99.90
22235;DHT22;11286;45.596;5.284;2022-09-27T06:32:59;13.90;99.90
22235;DHT22;11286;45.596;5.284;2022-09-27T06:35:26;13.80;99.90
22235;DHT22;11286;45.596;5.284;2022-09-27T06:37:52;14.10;99.90
22235;DHT22;11286;45.596;5.284;2022-09-27T06:40:19;13.80;99.90
22235;DHT22;11286;45.596;5.284;2022-09-27T06:42:44;14.10;99.90
22235;DHT22;11286;45.596;5.284;2022-09-27T06:45:11;14.40;99.90
22235;DHT22;11286;45.596;5.284;2022-09-27T06:47:37;14.80;99.90
22235;DHT22;11286;45.596;5.284;2022-09-27T06:50:04;14.70;99.90
22235;DHT22;11286;45.596;5.284;2022-09-27T06:52:34;14.70;99.90
22235;DHT22;11286;45.596;5.284;2022-09-27T06:55:00;14.80;99.90
22235;DHT22;11286;45.596;5.284;2022-09-27T06:57:26;14.80;99.90
22235;DHT22;11286;45.596;5.284;2022-09-27T07:00:11;14.80;99.90
22235;DHT22;11286;45.596;5.284;2022-09-27T07:02:52;14.80;99.90
22235;DHT22;11286;45.596;5.284;2022-09-27T07:05:18;14.60;99.90
22235;DHT22;11286;45.596;5.284;2022-09-27T07:07:44;14.60;99.90
22235;DHT22;11286;45.596;5.284;2022-09-27T07:10:11;14.60;99.90
22235;DHT22;11286;45.596;5.284;2022-09-27T07:12:37;14.60;99.90
22235;DHT22;11286;45.596;5.284;2022-09-27T07:15:04;14.50;99.90
22235;DHT22;11286;45.596;5.284;2022-09-27T07:17:30;14.70;99.90
22235;DHT22;11286;45.596;5.284;2022-09-27T07:19:55;14.80;99.90
22235;DHT22;11286;45.596;5.284;2022-09-27T07:22:21;14.80;99.90
22235;DHT22;11286;45.596;5.284;2022-09-27T07:24:47;15.00;99.90
22235;DHT22;11286;45.596;5.284;2022-09-27T07:27:12;15.00;99.90
22235;DHT22;11286;45.596;5.284;2022-09-27T07:29:39;15.30;99.90
22235;DHT22;11286;45.596;5.284;2022-09-27T07:32:06;15.50;99.90
22235;DHT22;11286;45.596;5.284;2022-09-27T07:34:35;15.70;99.90
22235;DHT22;11286;45.596;5.284;2022-09-27T07:37:01;15.80;99.90
22235;DHT22;11286;45.596;5.284;2022-09-27T07:39:28;16.10;99.90
22235;DHT22;11286;45.596;5.284;2022-09-27T07:41:54;16.40;99.90
22235;DHT22;11286;45.596;5.284;2022-09-27T07:44:19;16.40;99.90
22235;DHT22;11286;45.596;5.284;2022-09-27T07:46:45;16.50;99.90
22235;DHT22;11286;45.596;5.284;2022-09-27T07:49:11;16.60;99.90
22235;DHT22;11286;45.596;5.284;2022-09-27T07:51:36;16.60;99.90
22235;DHT22;11286;45.596;5.284;2022-09-27T07:54:02;16.70;99.90
22235;DHT22;11286;45.596;5.284;2022-09-27T07:56:28;16.80;99.90
22235;DHT22;11286;45.596;5.284;2022-09-27T07:58:54;16.70;99.90
22235;DHT22;11286;45.596;5.284;2022-09-27T08:01:20;17.00;99.90
22235;DHT22;11286;45.596;5.284;2022-09-27T08:03:45;17.30;99.90
22235;DHT22;11286;45.596;5.284;2022-09-27T08:06:11;17.00;99.90
22235;DHT22;11286;45.596;5.284;2022-09-27T08:08:37;17.00;99.90
22235;DHT22;11286;45.596;5.284;2022-09-27T08:11:16;17.10;99.90
22235;DHT22;11286;45.596;5.284;2022-09-27T08:13:44;17.10;99.90
22235;DHT22;11286;45.596;5.284;2022-09-27T08:16:10;17.20;99.90
22235;DHT22;11286;45.596;5.284;2022-09-27T08:18:36;17.20;99.90
22235;DHT22;11286;45.596;5.284;2022-09-27T08:21:02;17.40;99.90
22235;DHT22;11286;45.596;5.284;2022-09-27T08:23:29;17.70;99.90
22235;DHT22;11286;45.596;5.284;2022-09-27T08:25:55;17.90;99.90
22235;DHT22;11286;45.596;5.284;2022-09-27T08:28:23;18.30;99.90
22235;DHT22;11286;45.596;5.284;2022-09-27T08:30:49;18.70;99.90
22235;DHT22;11286;45.596;5.284;2022-09-27T08:33:15;18.70;99.90
22235;DHT22;11286;45.596;5.284;2022-09-27T08:35:41;19.10;99.90
22235;DHT22;11286;45.596;5.284;2022-09-27T08:38:08;19.30;99.90
22235;DHT22;11286;45.596;5.284;2022-09-27T08:45:59;25.50;99.90
22235;DHT22;11286;45.596;5.284;2022-09-27T08:48:28;25.70;99.90
22235;DHT22;11286;45.596;5.284;2022-09-27T08:50:54;21.90;99.90
22235;DHT22;11286;45.596;5.284;2022-09-27T08:55:52;20.40;99.90
22235;DHT22;11286;45.596;5.284;2022-09-27T08:58:36;26.40;99.90
22235;DHT22;11286;45.596;5.284;2022-09-27T09:01:10;32.10;99.90
22235;DHT22;11286;45.596;5.284;2022-09-27T09:03:49;32.80;99.90
22235;DHT22;11286;45.596;5.284;2022-09-27T09:06:37;32.90;99.90
22235;DHT22;11286;45.596;5.284;2022-09-27T09:09:13;32.70;99.90
22235;DHT22;11286;45.596;5.284;2022-09-27T09:14:51;32.80;99.90
22235;DHT22;11286;45.596;5.284;2022-09-27T09:17:27;27.00;99.90
22235;DHT22;11286;45.596;5.284;2022-09-27T09:25:28;31.90;99.90
22235;DHT22;11286;45.596;5.284;2022-09-27T09:33:33;34.90;99.90
22235;DHT22;11286;45.596;5.284;2022-09-27T09:36:15;29.40;99.90
22235;DHT22;11286;45.596;5.284;2022-09-27T09:38:53;30.30;99.90
22235;DHT22;11286;45.596;5.284;2022-09-27T09:41:41;28.70;99.90
22235;DHT22;11286;45.596;5.284;2022-09-27T09:46:42;22.10;99.90
22235;DHT22;11286;45.596;5.284;2022-09-27T09:49:36;26.90;99.90
22235;DHT22;11286;45.596;5.284;2022-09-27T09:52:10;26.80;99.90
22235;DHT22;11286;45.596;5.284;2022-09-27T09:55:03;26.70;99.90
22235;DHT22;11286;45.596;5.284;2022-09-27T09:57:45;23.30;99.90
22235;DHT22;11286;45.596;5.284;2022-09-27T10:00:16;25.40;99.90
22235;DHT22;11286;45.596;5.284;2022-09-27T10:02:44;31.00;99.90
22235;DHT22;11286;45.596;5.284;2022-09-27T10:05:28;34.90;99.90
22235;DHT22;11286;45.596;5.284;2022-09-27T10:07:58;36.30;99.90
22235;DHT22;11286;45.596;5.284;2022-09-27T10:10:25;33.50;99.90
22235;DHT22;11286;45.596;5.284;2022-09-27T10:12:51;29.50;99.90
22235;DHT22;11286;45.596;5.284;2022-09-27T10:15:22;34.20;99.90
22235;DHT22;11286;45.596;5.284;2022-09-27T10:17:51;35.70;99.90
22235;DHT22;11286;45.596;5.284;2022-09-27T10:20:35;35.90;99.90
22235;DHT22;11286;45.596;5.284;2022-09-27T10:23:10;37.00;99.90
22235;DHT22;11286;45.596;5.284;2022-09-27T10:25:58;36.80;99.90
22235;DHT22;11286;45.596;5.284;2022-09-27T10:31:09;36.90;99.90
22235;DHT22;11286;45.596;5.284;2022-09-27T10:34:02;37.60;99.90
22235;DHT22;11286;45.596;5.284;2022-09-27T10:36:33;40.50;99.90
22235;DHT22;11286;45.596;5.284;2022-09-27T10:39:04;33.50;99.90
22235;DHT22;11286;45.596;5.284;2022-09-27T10:41:41;27.30;99.90
22235;DHT22;11286;45.596;5.284;2022-09-27T10:46:43;23.60;99.90
22235;DHT22;11286;45.596;5.284;2022-09-27T10:51:50;23.10;99.90
22235;DHT22;11286;45.596;5.284;2022-09-27T10:54:27;24.30;99.90
22235;DHT22;11286;45.596;5.284;2022-09-27T10:57:02;33.20;99.90
22235;DHT22;11286;45.596;5.284;2022-09-27T10:59:31;37.20;99.90
22235;DHT22;11286;45.596;5.284;2022-09-27T11:01:58;30.40;99.90
22235;DHT22;11286;45.596;5.284;2022-09-27T11:04:33;25.90;99.90
22235;DHT22;11286;45.596;5.284;2022-09-27T11:07:18;23.80;99.90
22235;DHT22;11286;45.596;5.284;2022-09-27T11:09:53;22.40;99.90
22235;DHT22;11286;45.596;5.284;2022-09-27T11:12:20;21.60;99.90
22235;DHT22;11286;45.596;5.284;2022-09-27T11:15:14;20.70;99.90
22235;DHT22;11286;45.596;5.284;2022-09-27T11:18:07;20.30;99.90
22235;DHT22;11286;45.596;5.284;2022-09-27T11:26:45;19.50;99.90
22235;DHT22;11286;45.596;5.284;2022-09-27T11:29:42;19.50;99.90
22235;DHT22;11286;45.596;5.284;2022-09-27T11:32:27;19.10;99.90
22235;DHT22;11286;45.596;5.284;2022-09-27T11:49:09;18.40;99.90
22235;DHT22;11286;45.596;5.284;2022-09-27T11:54:59;17.90;99.90
22235;DHT22;11286;45.596;5.284;2022-09-27T11:57:32;17.80;99.90
22235;DHT22;11286;45.596;5.284;2022-09-27T12:00:21;18.00;99.90
22235;DHT22;11286;45.596;5.284;2022-09-27T12:12:05;18.60;99.90
22235;DHT22;11286;45.596;5.284;2022-09-27T12:14:15;18.60;99.90
22235;DHT22;11286;45.596;5.284;2022-09-27T12:16:43;18.90;99.90
22235;DHT22;11286;45.596;5.284;2022-09-27T12:19:24;19.50;99.90
22235;DHT22;11286;45.596;5.284;2022-09-27T12:21:53;21.40;99.90
22235;DHT22;11286;45.596;5.284;2022-09-27T12:24:23;21.80;99.90
22235;DHT22;11286;45.596;5.284;2022-09-27T12:26:53;22.80;99.90
22235;DHT22;11286;45.596;5.284;2022-09-27T12:29:29;23.90;99.90
22235;DHT22;11286;45.596;5.284;2022-09-27T12:40:24;30.30;99.90
22235;DHT22;11286;45.596;5.284;2022-09-27T12:45:49;26.10;99.90
22235;DHT22;11286;45.596;5.284;2022-09-27T12:48:33;26.00;99.90
22235;DHT22;11286;45.596;5.284;2022-09-27T12:51:19;26.30;99.90
22235;DHT22;11286;45.596;5.284;2022-09-27T12:59:04;24.90;99.90
22235;DHT22;11286;45.596;5.284;2022-09-27T13:07:27;29.20;99.90
22235;DHT22;11286;45.596;5.284;2022-09-27T13:12:36;29.60;99.90
22235;DHT22;11286;45.596;5.284;2022-09-27T13:15:03;27.70;99.90
22235;DHT22;11286;45.596;5.284;2022-09-27T13:25:55;26.00;99.90
22235;DHT22;11286;45.596;5.284;2022-09-27T13:31:08;25.20;99.90
22235;DHT22;11286;45.596;5.284;2022-09-27T13:44:14;24.80;99.90
22235;DHT22;11286;45.596;5.284;2022-09-27T13:46:51;24.60;99.90
22235;DHT22;11286;45.596;5.284;2022-09-27T13:49:24;23.80;99.90
22235;DHT22;11286;45.596;5.284;2022-09-27T13:51:55;23.30;99.90
22235;DHT22;11286;45.596;5.284;2022-09-27T13:54:56;23.30;99.90
22235;DHT22;11286;45.596;5.284;2022-09-27T13:57:42;23.00;99.90
22235;DHT22;11286;45.596;5.284;2022-09-27T14:00:21;22.30;99.90
22235;DHT22;11286;45.596;5.284;2022-09-27T14:05:56;22.30;99.90
22235;DHT22;11286;45.596;5.284;2022-09-27T14:08:39;22.00;99.90
22235;DHT22;11286;45.596;5.284;2022-09-27T14:11:21;22.20;99.90
22235;DHT22;11286;45.596;5.284;2022-09-27T14:13:48;21.80;99.90
22235;DHT22;11286;45.596;5.284;2022-09-27T14:16:15;21.80;99.90
22235;DHT22;11286;45.596;5.284;2022-09-27T14:24:21;20.70;99.90
22235;DHT22;11286;45.596;5.284;2022-09-27T14:26:48;20.70;99.90
22235;DHT22;11286;45.596;5.284;2022-09-27T14:29:16;20.40;99.90
22235;DHT22;11286;45.596;5.284;2022-09-27T14:31:42;20.30;99.90
22235;DHT22;11286;45.596;5.284;2022-09-27T14:34:07;20.30;99.90
22235;DHT22;11286;45.596;5.284;2022-09-27T14:36:34;20.10;99.90
22235;DHT22;11286;45.596;5.284;2022-09-27T14:39:29;20.10;99.90
22235;DHT22;11286;45.596;5.284;2022-09-27T14:41:57;20.10;99.90
22235;DHT22;11286;45.596;5.284;2022-09-27T14:44:23;20.00;99.90
22235;DHT22;11286;45.596;5.284;2022-09-27T14:47:19;20.10;99.90
22235;DHT22;11286;45.596;5.284;2022-09-27T14:49:57;20.20;99.90
22235;DHT22;11286;45.596;5.284;2022-09-27T14:52:32;20.30;99.90
22235;DHT22;11286;45.596;5.284;2022-09-27T14:55:00;20.20;99.90
22235;DHT22;11286;45.596;5.284;2022-09-27T14:57:28;20.10;99.90
22235;DHT22;11286;45.596;5.284;2022-09-27T14:59:57;19.90;99.90
22235;DHT22;11286;45.596;5.284;2022-09-27T15:02:25;19.90;99.90
22235;DHT22;11286;45.596;5.284;2022-09-27T15:04:52;20.10;99.90
22235;DHT22;11286;45.596;5.284;2022-09-27T15:07:19;20.00;99.90
22235;DHT22;11286;45.596;5.284;2022-09-27T15:09:48;19.90;99.90
22235;DHT22;11286;45.596;5.284;2022-09-27T15:12:22;20.00;99.90
22235;DHT22;11286;45.596;5.284;2022-09-27T15:14:50;20.20;99.90
22235;DHT22;11286;45.596;5.284;2022-09-27T15:17:18;20.20;99.90
22235;DHT22;11286;45.596;5.284;2022-09-27T15:20:28;20.10;99.90
22235;DHT22;11286;45.596;5.284;2022-09-27T15:22:56;19.80;99.90
22235;DHT22;11286;45.596;5.284;2022-09-27T15:25:32;19.80;99.90
22235;DHT22;11286;45.596;5.284;2022-09-27T15:30:41;19.50;99.90
22235;DHT22;11286;45.596;5.284;2022-09-27T15:33:21;19.30;99.90
22235;DHT22;11286;45.596;5.284;2022-09-27T15:35:52;19.10;99.90
22235;DHT22;11286;45.596;5.284;2022-09-27T15:38:27;18.90;99.90
22235;DHT22;11286;45.596;5.284;2022-09-27T15:41:03;18.80;99.90
22235;DHT22;11286;45.596;5.284;2022-09-27T15:43:38;18.80;99.90
22235;DHT22;11286;45.596;5.284;2022-09-27T15:46:28;18.80;99.90
22235;DHT22;11286;45.596;5.284;2022-09-27T15:51:45;18.70;99.90
22235;DHT22;11286;45.596;5.284;2022-09-27T15:54:11;18.70;99.90
22235;DHT22;11286;45.596;5.284;2022-09-27T15:56:40;19.00;99.90
22235;DHT22;11286;45.596;5.284;2022-09-27T15:59:21;18.40;99.90
22235;DHT22;11286;45.596;5.284;2022-09-27T16:01:48;18.40;99.90
22235;DHT22;11286;45.596;5.284;2022-09-27T16:04:14;18.40;99.90
22235;DHT22;11286;45.596;5.284;2022-09-27T16:06:39;18.40;99.90
22235;DHT22;11286;45.596;5.284;2022-09-27T16:09:14;18.20;99.90
22235;DHT22;11286;45.596;5.284;2022-09-27T16:11:47;18.30;99.90
22235;DHT22;11286;45.596;5.284;2022-09-27T16:14:13;18.40;99.90
22235;DHT22;11286;45.596;5.284;2022-09-27T16:16:50;18.60;99.90
22235;DHT22;11286;45.596;5.284;2022-09-27T16:19:18;18.50;99.90
22235;DHT22;11286;45.596;5.284;2022-09-27T16:21:43;18.50;99.90
22235;DHT22;11286;45.596;5.284;2022-09-27T16:24:10;18.60;99.90
22235;DHT22;11286;45.596;5.284;2022-09-27T16:26:36;18.70;99.90
22235;DHT22;11286;45.596;5.284;2022-09-27T16:29:02;18.60;99.90
22235;DHT22;11286;45.596;5.284;2022-09-27T16:31:28;18.40;99.90
22235;DHT22;11286;45.596;5.284;2022-09-27T16:33:53;18.40;99.90
22235;DHT22;11286;45.596;5.284;2022-09-27T16:36:19;18.30;99.90
22235;DHT22;11286;45.596;5.284;2022-09-27T16:38:52;18.20;99.90
22235;DHT22;11286;45.596;5.284;2022-09-27T16:41:19;18.10;99.90
22235;DHT22;11286;45.596;5.284;2022-09-27T16:43:46;18.10;99.90
22235;DHT22;11286;45.596;5.284;2022-09-27T16:46:12;18.10;99.90
22235;DHT22;11286;45.596;5.284;2022-09-27T16:48:41;17.90;99.90
22235;DHT22;11286;45.596;5.284;2022-09-27T16:51:14;17.70;99.90
22235;DHT22;11286;45.596;5.284;2022-09-27T16:53:59;17.70;99.90
22235;DHT22;11286;45.596;5.284;2022-09-27T16:56:25;17.70;99.90
22235;DHT22;11286;45.596;5.284;2022-09-27T16:58:51;17.60;99.90
22235;DHT22;11286;45.596;5.284;2022-09-27T17:01:17;17.60;99.90
22235;DHT22;11286;45.596;5.284;2022-09-27T17:03:47;17.40;99.90
22235;DHT22;11286;45.596;5.284;2022-09-27T17:06:14;17.40;99.90
22235;DHT22;11286;45.596;5.284;2022-09-27T17:08:39;17.60;99.90
22235;DHT22;11286;45.596;5.284;2022-09-27T17:11:05;17.50;99.90
22235;DHT22;11286;45.596;5.284;2022-09-27T17:13:31;17.30;99.90
22235;DHT22;11286;45.596;5.284;2022-09-27T17:15:58;17.40;99.90
22235;DHT22;11286;45.596;5.284;2022-09-27T17:18:23;17.10;99.90
22235;DHT22;11286;45.596;5.284;2022-09-27T17:20:49;17.10;99.90
22235;DHT22;11286;45.596;5.284;2022-09-27T17:23:14;17.00;99.90
22235;DHT22;11286;45.596;5.284;2022-09-27T17:25:40;16.80;99.90
22235;DHT22;11286;45.596;5.284;2022-09-27T17:28:06;16.70;99.90
22235;DHT22;11286;45.596;5.284;2022-09-27T17:30:31;16.80;99.90
22235;DHT22;11286;45.596;5.284;2022-09-27T17:32:59;16.70;99.90
22235;DHT22;11286;45.596;5.284;2022-09-27T17:35:25;16.60;99.90
22235;DHT22;11286;45.596;5.284;2022-09-27T17:37:50;16.50;99.90
22235;DHT22;11286;45.596;5.284;2022-09-27T17:40:16;16.60;99.90
22235;DHT22;11286;45.596;5.284;2022-09-27T17:42:42;16.50;99.90
22235;DHT22;11286;45.596;5.284;2022-09-27T17:45:08;16.50;99.90
22235;DHT22;11286;45.596;5.284;2022-09-27T17:47:34;16.60;99.90
22235;DHT22;11286;45.596;5.284;2022-09-27T17:50:18;16.90;99.90
22235;DHT22;11286;45.596;5.284;2022-09-27T17:52:51;16.70;99.90
22235;DHT22;11286;45.596;5.284;2022-09-27T17:55:17;16.60;99.90
22235;DHT22;11286;45.596;5.284;2022-09-27T17:57:45;16.70;99.90
22235;DHT22;11286;45.596;5.284;2022-09-27T18:00:11;16.70;99.90
22235;DHT22;11286;45.596;5.284;2022-09-27T18:02:37;16.70;99.90
22235;DHT22;11286;45.596;5.284;2022-09-27T18:05:03;16.60;99.90
22235;DHT22;11286;45.596;5.284;2022-09-27T18:07:29;16.40;99.90
22235;DHT22;11286;45.596;5.284;2022-09-27T18:09:55;16.40;99.90
22235;DHT22;11286;45.596;5.284;2022-09-27T18:12:21;16.40;99.90
22235;DHT22;11286;45.596;5.284;2022-09-27T18:14:47;16.40;99.90
22235;DHT22;11286;45.596;5.284;2022-09-27T18:17:13;16.40;99.90
22235;DHT22;11286;45.596;5.284;2022-09-27T18:19:39;16.30;99.90
22235;DHT22;11286;45.596;5.284;2022-09-27T18:22:05;16.40;99.90
22235;DHT22;11286;45.596;5.284;2022-09-27T18:24:31;16.20;99.90
22235;DHT22;11286;45.596;5.284;2022-09-27T18:26:58;16.20;99.90